sensor_id;sensor_type;location;lat;lon;timestamp;P1;durP1;ratioP1;P2;durP2;ratioP2
40793;SDS011;26502;51.886;15.604;2022-12-22T00:01:01;35.20;;;19.50;;
40793;SDS011;26502;51.886;15.604;2022-12-22T00:06:30;35.30;;;17.10;;
40793;SDS011;26502;51.886;15.604;2022-12-22T00:11:54;27.50;;;14.40;;
40793;SDS011;26502;51.886;15.604;2022-12-22T00:17:21;30.60;;;15.40;;
40793;SDS011;26502;51.886;15.604;2022-12-22T00:22:48;29.80;;;16.00;;
40793;SDS011;26502;51.886;15.604;2022-12-22T00:28:13;32.60;;;16.70;;
40793;SDS011;26502;51.886;15.604;2022-12-22T00:33:37;26.90;;;15.00;;
40793;SDS011;26502;51.886;15.604;2022-12-22T00:39:04;35.40;;;17.20;;
40793;SDS011;26502;51.886;15.604;2022-12-22T00:44:33;26.60;;;15.10;;
40793;SDS011;26502;51.886;15.604;2022-12-22T00:49:58;24.40;;;13.40;;
40793;SDS011;26502;51.886;15.604;2022-12-22T00:55:24;24.10;;;13.60;;
40793;SDS011;26502;51.886;15.604;2022-12-22T01:00:52;26.00;;;13.90;;
40793;SDS011;26502;51.886;15.604;2022-12-22T01:06:17;29.70;;;14.70;;
40793;SDS011;26502;51.886;15.604;2022-12-22T01:11:43;26.00;;;13.60;;
40793;SDS011;26502;51.886;15.604;2022-12-22T01:17:09;20.60;;;12.10;;
40793;SDS011;26502;51.886;15.604;2022-12-22T01:22:33;25.10;;;14.60;;
40793;SDS011;26502;51.886;15.604;2022-12-22T01:27:58;22.80;;;15.00;;
40793;SDS011;26502;51.886;15.604;2022-12-22T01:33:23;25.50;;;15.60;;
40793;SDS011;26502;51.886;15.604;2022-12-22T01:38:47;27.20;;;16.30;;
40793;SDS011;26502;51.886;15.604;2022-12-22T01:44:13;29.10;;;16.90;;
40793;SDS011;26502;51.886;15.604;2022-12-22T01:49:39;26.50;;;15.60;;
40793;SDS011;26502;51.886;15.604;2022-12-22T01:55:07;24.30;;;15.60;;
40793;SDS011;26502;51.886;15.604;2022-12-22T02:00:36;23.00;;;14.30;;
40793;SDS011;26502;51.886;15.604;2022-12-22T02:06:07;22.80;;;13.30;;
40793;SDS011;26502;51.886;15.604;2022-12-22T02:11:44;23.80;;;15.10;;
40793;SDS011;26502;51.886;15.604;2022-12-22T02:17:19;22.10;;;13.60;;
40793;SDS011;26502;51.886;15.604;2022-12-22T02:22:49;22.80;;;14.20;;
40793;SDS011;26502;51.886;15.604;2022-12-22T02:28:23;22.50;;;13.30;;
40793;SDS011;26502;51.886;15.604;2022-12-22T02:33:47;17.90;;;11.60;;
40793;SDS011;26502;51.886;15.604;2022-12-22T02:39:13;19.80;;;12.30;;
40793;SDS011;26502;51.886;15.604;2022-12-22T02:44:51;20.90;;;13.40;;
40793;SDS011;26502;51.886;15.604;2022-12-22T02:50:30;18.20;;;12.70;;
40793;SDS011;26502;51.886;15.604;2022-12-22T02:56:01;21.70;;;13.20;;
40793;SDS011;26502;51.886;15.604;2022-12-22T03:01:28;19.60;;;12.60;;
40793;SDS011;26502;51.886;15.604;2022-12-22T03:06:54;25.60;;;12.90;;
40793;SDS011;26502;51.886;15.604;2022-12-22T03:12:19;17.20;;;11.20;;
40793;SDS011;26502;51.886;15.604;2022-12-22T03:17:44;15.90;;;10.60;;
40793;SDS011;26502;51.886;15.604;2022-12-22T03:23:10;16.90;;;10.70;;
40793;SDS011;26502;51.886;15.604;2022-12-22T03:28:35;18.40;;;10.30;;
40793;SDS011;26502;51.886;15.604;2022-12-22T03:33:42;15.70;;;10.10;;
40793;SDS011;26502;51.886;15.604;2022-12-22T03:38:49;15.90;;;10.00;;
40793;SDS011;26502;51.886;15.604;2022-12-22T03:43:56;14.40;;;9.60;;
40793;SDS011;26502;51.886;15.604;2022-12-22T03:49:21;13.60;;;8.00;;
40793;SDS011;26502;51.886;15.604;2022-12-22T03:54:29;13.30;;;8.80;;
40793;SDS011;26502;51.886;15.604;2022-12-22T03:59:37;13.50;;;8.70;;
40793;SDS011;26502;51.886;15.604;2022-12-22T04:04:44;10.10;;;7.10;;
40793;SDS011;26502;51.886;15.604;2022-12-22T04:09:52;13.50;;;8.10;;
40793;SDS011;26502;51.886;15.604;2022-12-22T04:15:16;11.50;;;7.40;;
40793;SDS011;26502;51.886;15.604;2022-12-22T04:20:24;11.90;;;7.80;;
40793;SDS011;26502;51.886;15.604;2022-12-22T04:25:33;12.20;;;7.90;;
40793;SDS011;26502;51.886;15.604;2022-12-22T04:30:40;12.20;;;8.60;;
40793;SDS011;26502;51.886;15.604;2022-12-22T04:35:48;14.20;;;8.20;;
40793;SDS011;26502;51.886;15.604;2022-12-22T04:40:55;13.00;;;7.70;;
40793;SDS011;26502;51.886;15.604;2022-12-22T04:46:04;10.90;;;7.90;;
40793;SDS011;26502;51.886;15.604;2022-12-22T04:51:12;12.50;;;8.40;;
40793;SDS011;26502;51.886;15.604;2022-12-22T04:56:20;12.20;;;8.70;;
40793;SDS011;26502;51.886;15.604;2022-12-22T05:01:30;17.30;;;9.30;;
40793;SDS011;26502;51.886;15.604;2022-12-22T05:06:37;13.50;;;8.20;;
40793;SDS011;26502;51.886;15.604;2022-12-22T05:11:44;12.00;;;8.30;;
40793;SDS011;26502;51.886;15.604;2022-12-22T05:16:51;14.50;;;9.30;;
40793;SDS011;26502;51.886;15.604;2022-12-22T05:21:59;14.30;;;8.90;;
40793;SDS011;26502;51.886;15.604;2022-12-22T05:27:06;12.40;;;8.90;;
40793;SDS011;26502;51.886;15.604;2022-12-22T05:32:14;13.60;;;8.40;;
40793;SDS011;26502;51.886;15.604;2022-12-22T05:37:23;14.40;;;9.30;;
40793;SDS011;26502;51.886;15.604;2022-12-22T05:42:30;13.70;;;9.70;;
40793;SDS011;26502;51.886;15.604;2022-12-22T05:47:41;12.90;;;8.50;;
40793;SDS011;26502;51.886;15.604;2022-12-22T05:52:49;12.10;;;8.30;;
40793;SDS011;26502;51.886;15.604;2022-12-22T05:57:58;11.60;;;7.90;;
40793;SDS011;26502;51.886;15.604;2022-12-22T06:03:05;11.40;;;7.70;;
40793;SDS011;26502;51.886;15.604;2022-12-22T06:08:13;11.20;;;7.60;;
40793;SDS011;26502;51.886;15.604;2022-12-22T06:13:22;11.20;;;6.80;;
40793;SDS011;26502;51.886;15.604;2022-12-22T06:18:30;9.60;;;7.60;;
40793;SDS011;26502;51.886;15.604;2022-12-22T06:23:37;11.00;;;7.80;;
40793;SDS011;26502;51.886;15.604;2022-12-22T06:28:45;9.50;;;7.70;;
40793;SDS011;26502;51.886;15.604;2022-12-22T06:33:52;10.40;;;6.90;;
40793;SDS011;26502;51.886;15.604;2022-12-22T06:39:00;10.60;;;6.60;;
40793;SDS011;26502;51.886;15.604;2022-12-22T06:44:08;11.60;;;7.50;;
40793;SDS011;26502;51.886;15.604;2022-12-22T06:49:15;10.10;;;7.10;;
40793;SDS011;26502;51.886;15.604;2022-12-22T06:54:23;13.60;;;8.40;;
40793;SDS011;26502;51.886;15.604;2022-12-22T06:59:31;10.10;;;7.20;;
40793;SDS011;26502;51.886;15.604;2022-12-22T07:04:38;11.60;;;7.80;;
40793;SDS011;26502;51.886;15.604;2022-12-22T07:09:46;10.20;;;7.40;;
40793;SDS011;26502;51.886;15.604;2022-12-22T07:14:54;11.50;;;8.60;;
40793;SDS011;26502;51.886;15.604;2022-12-22T07:20:01;10.40;;;7.90;;
40793;SDS011;26502;51.886;15.604;2022-12-22T07:25:10;15.90;;;8.30;;
40793;SDS011;26502;51.886;15.604;2022-12-22T07:30:17;10.30;;;8.60;;
40793;SDS011;26502;51.886;15.604;2022-12-22T07:35:24;12.50;;;9.30;;
40793;SDS011;26502;51.886;15.604;2022-12-22T07:40:32;14.70;;;10.30;;
40793;SDS011;26502;51.886;15.604;2022-12-22T07:45:40;16.10;;;10.80;;
40793;SDS011;26502;51.886;15.604;2022-12-22T07:50:48;25.10;;;12.90;;
40793;SDS011;26502;51.886;15.604;2022-12-22T07:55:55;22.00;;;12.00;;
40793;SDS011;26502;51.886;15.604;2022-12-22T08:01:05;47.50;;;22.10;;
40793;SDS011;26502;51.886;15.604;2022-12-22T08:06:12;50.20;;;21.80;;
40793;SDS011;26502;51.886;15.604;2022-12-22T08:11:20;29.30;;;16.70;;
40793;SDS011;26502;51.886;15.604;2022-12-22T08:16:27;43.00;;;21.90;;
40793;SDS011;26502;51.886;15.604;2022-12-22T08:21:34;31.90;;;16.70;;
40793;SDS011;26502;51.886;15.604;2022-12-22T08:26:42;29.90;;;19.40;;
40793;SDS011;26502;51.886;15.604;2022-12-22T08:31:53;42.20;;;23.90;;
40793;SDS011;26502;51.886;15.604;2022-12-22T08:37:03;27.90;;;17.20;;
40793;SDS011;26502;51.886;15.604;2022-12-22T08:42:16;21.00;;;13.90;;
40793;SDS011;26502;51.886;15.604;2022-12-22T08:47:27;14.40;;;10.60;;
40793;SDS011;26502;51.886;15.604;2022-12-22T08:52:35;15.20;;;10.70;;
40793;SDS011;26502;51.886;15.604;2022-12-22T08:57:42;14.90;;;10.60;;
40793;SDS011;26502;51.886;15.604;2022-12-22T09:02:53;15.70;;;10.40;;
40793;SDS011;26502;51.886;15.604;2022-12-22T09:08:01;12.60;;;9.70;;
40793;SDS011;26502;51.886;15.604;2022-12-22T09:13:08;14.80;;;10.60;;
40793;SDS011;26502;51.886;15.604;2022-12-22T09:18:15;18.40;;;12.20;;
40793;SDS011;26502;51.886;15.604;2022-12-22T09:23:24;11.80;;;8.70;;
40793;SDS011;26502;51.886;15.604;2022-12-22T09:28:31;12.10;;;9.50;;
40793;SDS011;26502;51.886;15.604;2022-12-22T09:33:39;14.60;;;10.10;;
40793;SDS011;26502;51.886;15.604;2022-12-22T09:38:47;11.80;;;9.40;;
40793;SDS011;26502;51.886;15.604;2022-12-22T09:43:55;14.30;;;9.90;;
40793;SDS011;26502;51.886;15.604;2022-12-22T09:49:06;13.90;;;10.50;;
40793;SDS011;26502;51.886;15.604;2022-12-22T09:54:17;15.40;;;10.10;;
40793;SDS011;26502;51.886;15.604;2022-12-22T09:59:26;12.90;;;9.20;;
40793;SDS011;26502;51.886;15.604;2022-12-22T10:04:40;12.90;;;9.20;;
40793;SDS011;26502;51.886;15.604;2022-12-22T10:09:59;10.60;;;8.80;;
40793;SDS011;26502;51.886;15.604;2022-12-22T10:15:21;10.90;;;8.80;;
40793;SDS011;26502;51.886;15.604;2022-12-22T10:25:39;12.80;;;7.60;;
40793;SDS011;26502;51.886;15.604;2022-12-22T10:31:14;9.50;;;6.50;;
40793;SDS011;26502;51.886;15.604;2022-12-22T10:36:24;9.40;;;7.10;;
40793;SDS011;26502;51.886;15.604;2022-12-22T10:41:35;10.20;;;6.60;;
40793;SDS011;26502;51.886;15.604;2022-12-22T10:46:47;7.30;;;6.10;;
40793;SDS011;26502;51.886;15.604;2022-12-22T10:51:57;22.00;;;13.10;;
40793;SDS011;26502;51.886;15.604;2022-12-22T10:57:24;18.00;;;10.70;;
40793;SDS011;26502;51.886;15.604;2022-12-22T11:02:35;11.80;;;6.90;;
40793;SDS011;26502;51.886;15.604;2022-12-22T11:07:43;14.70;;;7.90;;
40793;SDS011;26502;51.886;15.604;2022-12-22T11:18:37;8.50;;;6.00;;
40793;SDS011;26502;51.886;15.604;2022-12-22T11:23:59;10.00;;;7.20;;
40793;SDS011;26502;51.886;15.604;2022-12-22T11:29:19;7.80;;;5.60;;
40793;SDS011;26502;51.886;15.604;2022-12-22T11:34:42;7.70;;;5.50;;
40793;SDS011;26502;51.886;15.604;2022-12-22T11:39:59;6.70;;;5.20;;
40793;SDS011;26502;51.886;15.604;2022-12-22T11:45:19;10.00;;;7.50;;
40793;SDS011;26502;51.886;15.604;2022-12-22T11:50:44;7.40;;;5.10;;
40793;SDS011;26502;51.886;15.604;2022-12-22T11:55:57;6.70;;;5.10;;
40793;SDS011;26502;51.886;15.604;2022-12-22T12:01:25;6.50;;;4.90;;
40793;SDS011;26502;51.886;15.604;2022-12-22T12:06:52;6.80;;;5.60;;
40793;SDS011;26502;51.886;15.604;2022-12-22T12:12:16;6.80;;;5.80;;
40793;SDS011;26502;51.886;15.604;2022-12-22T12:17:32;11.30;;;7.00;;
40793;SDS011;26502;51.886;15.604;2022-12-22T12:22:50;7.60;;;5.60;;
40793;SDS011;26502;51.886;15.604;2022-12-22T12:28:13;8.60;;;6.70;;
40793;SDS011;26502;51.886;15.604;2022-12-22T12:33:33;15.30;;;13.30;;
40793;SDS011;26502;51.886;15.604;2022-12-22T12:38:50;19.90;;;11.90;;
40793;SDS011;26502;51.886;15.604;2022-12-22T12:44:04;11.00;;;8.70;;
40793;SDS011;26502;51.886;15.604;2022-12-22T13:00:45;9.20;;;6.30;;
40793;SDS011;26502;51.886;15.604;2022-12-22T13:05:55;34.60;;;28.50;;
40793;SDS011;26502;51.886;15.604;2022-12-22T13:16:45;13.20;;;10.20;;
40793;SDS011;26502;51.886;15.604;2022-12-22T13:21:52;10.30;;;9.00;;
40793;SDS011;26502;51.886;15.604;2022-12-22T13:27:04;10.00;;;7.50;;
40793;SDS011;26502;51.886;15.604;2022-12-22T13:32:18;12.40;;;7.90;;
40793;SDS011;26502;51.886;15.604;2022-12-22T13:37:29;16.10;;;11.20;;
40793;SDS011;26502;51.886;15.604;2022-12-22T13:42:46;12.70;;;9.30;;
40793;SDS011;26502;51.886;15.604;2022-12-22T13:47:58;10.10;;;8.30;;
40793;SDS011;26502;51.886;15.604;2022-12-22T13:53:10;10.10;;;6.80;;
40793;SDS011;26502;51.886;15.604;2022-12-22T13:58:25;10.50;;;8.20;;
40793;SDS011;26502;51.886;15.604;2022-12-22T14:03:37;9.20;;;6.80;;
40793;SDS011;26502;51.886;15.604;2022-12-22T14:08:52;16.60;;;10.30;;
40793;SDS011;26502;51.886;15.604;2022-12-22T14:14:15;9.40;;;6.30;;
40793;SDS011;26502;51.886;15.604;2022-12-22T14:19:25;17.90;;;13.50;;
40793;SDS011;26502;51.886;15.604;2022-12-22T14:24:40;11.50;;;7.50;;
40793;SDS011;26502;51.886;15.604;2022-12-22T14:29:50;24.90;;;14.50;;
40793;SDS011;26502;51.886;15.604;2022-12-22T14:34:58;18.60;;;10.80;;
40793;SDS011;26502;51.886;15.604;2022-12-22T14:40:12;14.40;;;9.80;;
